createdAt,value
2019-02-08T04:55:10.079Z,78.18
2019-02-08T04:57:40.674Z,78.23
2019-02-08T05:00:22.950Z,78.06
2019-02-08T05:02:53.413Z,77.78
2019-02-08T05:05:23.814Z,77.24
2019-02-08T05:07:54.262Z,76.59
2019-02-08T05:10:31.498Z,75.99
2019-02-08T05:13:02.901Z,75.43
2019-02-08T05:15:33.297Z,74.87
2019-02-08T05:18:03.870Z,74.41
2019-02-08T05:20:34.291Z,74.00
2019-02-08T05:23:04.721Z,73.65
2019-02-08T05:25:35.124Z,73.28
2019-02-08T05:28:05.575Z,73.05
2019-02-08T05:30:36.720Z,72.85
2019-02-08T05:33:07.112Z,72.65
2019-02-08T05:35:37.584Z,72.51
2019-02-08T05:38:08.005Z,72.28
2019-02-08T05:40:38.461Z,72.03
2019-02-08T05:43:08.925Z,71.82
2019-02-08T05:45:39.598Z,71.76
2019-02-08T05:48:10.127Z,71.46
2019-02-08T05:50:40.659Z,71.53
2019-02-08T05:53:11.093Z,71.20
2019-02-08T05:55:41.486Z,70.87
2019-02-08T05:58:11.952Z,70.66
2019-02-08T06:00:46.422Z,70.70
2019-02-08T06:03:16.901Z,70.56
2019-02-08T06:05:47.430Z,70.62
2019-02-08T06:08:17.912Z,70.78
2019-02-08T06:10:48.392Z,70.90
2019-02-08T06:13:18.813Z,70.63
2019-02-08T06:15:49.344Z,70.54
2019-02-08T06:18:19.731Z,70.40
2019-02-08T06:20:50.208Z,70.29
2019-02-08T06:23:20.697Z,70.64
2019-02-08T06:25:51.107Z,71.15
2019-02-08T06:28:21.601Z,71.18
2019-02-08T06:30:52.022Z,71.18
2019-02-08T06:33:22.554Z,71.12
2019-02-08T06:35:52.954Z,71.16
2019-02-08T06:38:23.413Z,70.79
2019-02-08T06:40:53.837Z,70.46
2019-02-08T06:43:24.260Z,70.33
2019-02-08T06:45:54.648Z,70.18
2019-02-08T06:48:25.081Z,70.27
2019-02-08T06:50:55.541Z,70.20
2019-02-08T06:53:25.940Z,70.03
2019-02-08T06:55:56.403Z,70.10
2019-02-08T06:58:34.813Z,69.91
2019-02-08T07:01:22.359Z,70.03
2019-02-08T07:03:54.417Z,69.87
2019-02-08T07:06:32.319Z,69.72
2019-02-08T07:09:13.489Z,69.75
2019-02-08T07:11:54.912Z,69.60
2019-02-08T07:14:26.952Z,69.67
2019-02-08T07:17:02.095Z,69.54
2019-02-08T07:19:37.424Z,69.42
2019-02-08T07:22:18.516Z,69.19
2019-02-08T07:24:50.675Z,68.97
2019-02-08T07:27:29.489Z,68.72
2019-02-08T07:30:04.848Z,68.65
2019-02-08T07:32:46.020Z,68.24
2019-02-08T07:35:18.200Z,68.21
2019-02-08T07:38:00.251Z,67.96
2019-02-08T07:40:38.403Z,67.56
2019-02-08T07:43:19.157Z,67.31
2019-02-08T07:45:54.110Z,67.06
2019-02-08T07:48:29.636Z,67.00
2019-02-08T07:51:14.001Z,66.65
2019-02-08T07:53:51.927Z,66.47
2019-02-08T07:56:23.973Z,66.15
2019-02-08T07:59:02.059Z,65.93
2019-02-08T08:01:49.154Z,65.58
2019-02-08T08:04:21.268Z,69.28
2019-02-08T08:06:59.077Z,65.54
2019-02-08T08:09:46.055Z,65.36
2019-02-08T08:12:18.674Z,65.30
2019-02-08T08:14:56.656Z,65.10
2019-02-08T08:17:28.743Z,66.11
2019-02-08T08:20:03.913Z,64.80
2019-02-08T08:22:36.033Z,65.04
2019-02-08T08:25:33.697Z,64.51
2019-02-08T08:28:12.132Z,64.36
2019-02-08T08:30:44.230Z,63.95
2019-02-08T08:33:24.087Z,63.57
2019-02-08T08:36:06.762Z,63.22
2019-02-08T08:38:49.174Z,63.36
2019-02-08T08:41:34.781Z,63.33
2019-02-08T08:44:17.477Z,62.93
2019-02-08T08:47:09.195Z,63.22
2019-02-08T08:50:02.525Z,66.01
2019-02-08T08:52:57.059Z,63.46
2019-02-08T08:55:42.057Z,61.79
2019-02-08T08:58:12.097Z,61.69
2019-02-08T09:00:54.247Z,61.75
2019-02-08T09:03:47.553Z,61.16
2019-02-08T09:06:36.113Z,61.23
2019-02-08T09:09:18.446Z,60.47
2019-02-08T09:12:08.531Z,60.76
2019-02-08T09:14:54.664Z,60.82
2019-02-08T09:17:34.010Z,60.44
2019-02-08T09:20:27.188Z,60.41
2019-02-08T09:23:10.048Z,60.67
2019-02-08T09:25:58.534Z,60.46
2019-02-08T09:28:44.329Z,60.16
2019-02-08T09:31:23.697Z,60.83
2019-02-08T09:34:21.333Z,60.31
2019-02-08T09:37:01.277Z,59.55
2019-02-08T09:39:52.945Z,59.64
2019-02-08T09:42:48.833Z,59.67
2019-02-08T09:45:34.418Z,59.86
2019-02-08T09:48:11.080Z,59.52
2019-02-08T09:50:50.715Z,59.79
2019-02-08T09:53:30.071Z,58.53
2019-02-08T09:56:26.307Z,58.92
2019-02-08T09:59:33.186Z,58.61
2019-02-08T10:02:15.798Z,58.51
2019-02-08T10:05:13.475Z,58.41
2019-02-08T10:08:14.522Z,57.93
2019-02-08T10:11:12.193Z,57.91
2019-02-08T10:14:02.466Z,57.25
2019-02-08T10:17:01.473Z,57.33
2019-02-08T10:19:54.230Z,57.25
2019-02-08T10:23:01.319Z,57.66
2019-02-08T10:25:47.307Z,57.03
2019-02-08T10:28:40.585Z,56.79
2019-02-08T10:31:47.758Z,56.48
2019-02-08T10:34:33.451Z,56.46
2019-02-08T10:37:19.136Z,56.72
2019-02-08T10:39:58.432Z,56.03
2019-02-08T10:42:49.692Z,55.87
2019-02-08T10:45:32.317Z,55.46
2019-02-08T10:48:11.692Z,55.35
2019-02-08T10:51:00.387Z,55.08
2019-02-08T10:53:55.037Z,55.04
2019-02-08T10:56:43.750Z,54.70
2019-02-08T10:59:23.288Z,54.40
2019-02-08T11:02:12.052Z,54.33
2019-02-08T11:04:45.970Z,54.37
2019-02-08T11:07:52.826Z,54.32
2019-02-08T11:10:29.516Z,54.01
2019-02-08T11:13:23.706Z,54.20
2019-02-08T11:16:30.583Z,53.92
2019-02-08T11:19:17.463Z,53.98
2019-02-08T11:21:49.219Z,54.02
2019-02-08T11:24:20.981Z,53.48
2019-02-08T11:26:51.376Z,53.34
2019-02-08T11:29:21.775Z,52.84
2019-02-08T11:31:52.196Z,53.01
2019-02-08T11:34:22.663Z,53.62
2019-02-08T11:36:54.598Z,53.32
2019-02-08T11:39:25.016Z,53.28
2019-02-08T11:41:55.488Z,53.39
2019-02-08T11:44:25.891Z,53.37
2019-02-08T11:46:56.291Z,54.38
2019-02-08T11:49:26.690Z,52.75
2019-02-08T11:51:57.166Z,53.07
2019-02-08T11:54:27.588Z,54.67
2019-02-08T11:56:58.021Z,52.27
2019-02-08T11:59:28.455Z,52.15
2019-02-08T12:01:58.871Z,52.04
2019-02-08T12:04:29.521Z,51.94
2019-02-08T12:07:02.546Z,51.88
2019-02-08T12:09:42.295Z,53.72
2019-02-08T12:12:12.877Z,51.88
2019-02-08T12:14:43.415Z,51.37
2019-02-08T12:17:13.840Z,52.04
2019-02-08T12:19:44.247Z,51.80
2019-02-08T12:22:14.634Z,52.90
2019-02-08T12:24:45.151Z,51.07
2019-02-08T12:27:15.654Z,51.54
2019-02-08T12:29:46.189Z,50.90
2019-02-08T12:32:16.720Z,51.54
2019-02-08T12:34:47.138Z,51.40
2019-02-08T12:37:17.604Z,51.45
2019-02-08T12:39:48.104Z,51.41
2019-02-08T12:42:18.535Z,50.60
2019-02-08T12:44:49.484Z,50.56
2019-02-08T12:47:20.100Z,51.13
2019-02-08T12:49:50.560Z,50.39
2019-02-08T12:52:21.067Z,50.09
2019-02-08T12:54:51.449Z,50.08
2019-02-08T12:57:22.332Z,50.25
2019-02-08T12:59:52.945Z,50.23
2019-02-08T13:02:23.394Z,50.38
2019-02-08T13:04:55.550Z,49.79
2019-02-08T13:07:26.693Z,49.89
2019-02-08T13:09:59.799Z,50.17
2019-02-08T13:12:30.444Z,50.22
2019-02-08T13:15:03.540Z,50.31
2019-02-08T13:17:34.761Z,50.15
2019-02-08T13:20:12.263Z,50.25
2019-02-08T13:22:43.145Z,50.10
2019-02-08T13:25:14.518Z,50.21
2019-02-08T13:27:45.084Z,50.40
2019-02-08T13:30:29.659Z,50.38
2019-02-08T13:33:03.050Z,49.92
2019-02-08T13:35:33.763Z,49.98
2019-02-08T13:38:04.718Z,49.67
2019-02-08T13:40:35.149Z,49.78
2019-02-08T13:43:06.603Z,50.04
2019-02-08T13:45:37.052Z,49.58
2019-02-08T13:48:07.576Z,49.69
2019-02-08T13:50:41.911Z,49.74
2019-02-08T13:53:14.108Z,49.78
2019-02-08T13:55:44.511Z,49.98
2019-02-08T13:58:15.013Z,50.13
2019-02-08T14:00:45.540Z,49.74
2019-02-08T14:03:15.959Z,50.22
2019-02-08T14:05:46.488Z,49.96
2019-02-08T14:08:16.923Z,50.19
2019-02-08T14:10:47.367Z,50.26
2019-02-08T14:13:17.889Z,50.90
2019-02-08T14:15:48.309Z,50.73
2019-02-08T14:18:18.694Z,51.05
2019-02-08T14:20:49.168Z,50.87
2019-02-08T14:23:19.703Z,50.99
2019-02-08T14:25:50.240Z,51.36
2019-02-08T14:28:20.661Z,51.39
2019-02-08T14:30:51.084Z,51.77
2019-02-08T14:33:21.524Z,51.81
2019-02-08T14:35:52.048Z,51.42
2019-02-08T14:38:22.471Z,51.50
2019-02-08T14:40:52.899Z,51.67
2019-02-08T14:43:23.304Z,51.35
2019-02-08T14:45:54.095Z,51.40
2019-02-08T14:48:27.994Z,51.66
2019-02-08T14:50:59.531Z,51.71
2019-02-08T14:53:29.954Z,51.92
2019-02-08T14:56:00.390Z,51.97
2019-02-08T14:58:30.917Z,52.18
2019-02-08T15:01:01.349Z,52.34
2019-02-08T15:03:31.881Z,52.64
2019-02-08T15:06:03.340Z,52.67
2019-02-08T15:08:35.522Z,52.78
2019-02-08T15:11:06.359Z,52.94
2019-02-08T15:13:36.853Z,52.96
2019-02-08T15:16:07.494Z,53.06
2019-02-08T15:18:37.985Z,52.80
2019-02-08T15:21:08.558Z,53.03
2019-02-08T15:23:38.987Z,53.03
2019-02-08T15:26:09.519Z,53.02
2019-02-08T15:28:39.988Z,53.10
2019-02-08T15:31:10.482Z,53.28
2019-02-08T15:33:41.115Z,53.38
2019-02-08T15:36:11.640Z,53.58
2019-02-08T15:38:42.176Z,53.97
2019-02-08T15:41:12.607Z,54.07
2019-02-08T15:43:43.025Z,54.30
2019-02-08T15:46:13.669Z,54.45
2019-02-08T15:48:44.390Z,54.62
2019-02-08T15:51:14.927Z,54.91
2019-02-08T15:53:45.358Z,55.07
2019-02-08T15:56:15.788Z,55.39
2019-02-08T15:58:46.192Z,55.45
2019-02-08T16:01:16.645Z,55.85
2019-02-08T16:03:47.046Z,56.18
2019-02-08T16:06:17.501Z,56.21
2019-02-08T16:08:47.970Z,56.48
2019-02-08T16:11:18.454Z,56.78
2019-02-08T16:13:48.869Z,56.95
2019-02-08T16:16:19.312Z,57.03
2019-02-08T16:18:49.843Z,57.37
2019-02-08T16:21:20.372Z,57.42
2019-02-08T16:23:51.059Z,57.62
2019-02-08T16:26:22.666Z,57.71
2019-02-08T16:28:53.197Z,57.83
2019-02-08T16:31:23.630Z,58.04
2019-02-08T16:33:55.148Z,58.38
2019-02-08T16:36:25.581Z,58.39
2019-02-08T16:38:56.049Z,58.42
2019-02-08T16:41:26.948Z,58.50
2019-02-08T16:43:57.374Z,58.52
2019-02-08T16:46:27.899Z,58.58
2019-02-08T16:48:58.333Z,58.74
2019-02-08T16:51:28.960Z,58.86
2019-02-08T16:54:00.961Z,58.95
2019-02-08T16:56:31.379Z,58.96
2019-02-08T16:59:02.887Z,58.99
2019-02-08T17:01:33.850Z,59.10
2019-02-08T17:04:04.260Z,59.00
2019-02-08T17:06:34.908Z,59.11
2019-02-08T17:09:08.580Z,59.23
2019-02-08T17:11:39.008Z,59.33
2019-02-08T17:14:09.424Z,59.54
2019-02-08T17:16:39.915Z,59.80
2019-02-08T17:19:10.445Z,59.76
2019-02-08T17:21:40.918Z,59.79
2019-02-08T17:24:12.420Z,59.99
2019-02-08T17:26:46.750Z,60.00
2019-02-08T17:29:17.681Z,60.29
2019-02-08T17:31:48.116Z,60.55
2019-02-08T17:34:18.670Z,60.76
2019-02-08T17:36:49.081Z,60.97
2019-02-08T17:39:19.601Z,60.82
2019-02-08T17:41:50.019Z,61.17
2019-02-08T17:44:20.452Z,61.30
2019-02-08T17:46:50.885Z,61.29
2019-02-08T17:49:21.415Z,61.38
2019-02-08T17:51:52.966Z,61.39
2019-02-08T17:54:25.674Z,61.66
2019-02-08T17:56:55.470Z,61.91
2019-02-08T17:59:25.886Z,62.25
2019-02-08T18:01:56.303Z,62.21
2019-02-08T18:04:26.847Z,62.45
2019-02-08T18:06:57.425Z,62.35
2019-02-08T18:09:27.844Z,62.51
2019-02-08T18:11:58.440Z,62.45
2019-02-08T18:14:28.971Z,62.62
2019-02-08T18:16:59.402Z,62.83
2019-02-08T18:19:31.626Z,62.97
2019-02-08T18:22:02.036Z,63.17
2019-02-08T18:24:32.534Z,63.26
2019-02-08T18:27:03.160Z,63.30
2019-02-08T18:29:33.692Z,63.19
2019-02-08T18:32:04.096Z,63.32
2019-02-08T18:34:34.638Z,63.29
2019-02-08T18:37:05.172Z,63.33
2019-02-08T18:39:35.576Z,63.26
2019-02-08T18:42:05.993Z,63.36
2019-02-08T18:44:36.416Z,63.43
2019-02-08T18:47:06.846Z,63.34
2019-02-08T18:49:37.334Z,63.28
2019-02-08T18:52:07.774Z,63.46
2019-02-08T18:54:38.202Z,63.41
2019-02-08T18:57:08.701Z,63.43
2019-02-08T18:59:39.140Z,63.42
2019-02-08T19:02:09.547Z,63.31
2019-02-08T19:04:39.987Z,63.74
2019-02-08T19:07:10.421Z,63.86
2019-02-08T19:09:40.949Z,63.91
2019-02-08T19:12:11.481Z,63.79
2019-02-08T19:14:41.900Z,63.80
2019-02-08T19:17:12.371Z,63.95
2019-02-08T19:19:42.964Z,64.14
2019-02-08T19:22:13.394Z,64.14
2019-02-08T19:24:43.827Z,64.40
2019-02-08T19:27:14.457Z,64.37
2019-02-08T19:29:44.888Z,64.52
2019-02-08T19:32:15.387Z,64.40
2019-02-08T19:34:45.842Z,64.63
2019-02-08T19:37:16.334Z,64.56
2019-02-08T19:39:46.740Z,64.64
2019-02-08T19:42:17.334Z,64.88
2019-02-08T19:44:47.757Z,65.15
2019-02-08T19:47:18.170Z,64.81
2019-02-08T19:49:48.620Z,64.81
2019-02-08T19:52:19.152Z,64.87
2019-02-08T19:54:49.563Z,64.86
2019-02-08T19:57:21.051Z,64.82
2019-02-08T19:59:51.567Z,64.72
2019-02-08T20:02:23.633Z,64.48
2019-02-08T20:04:54.120Z,64.47
2019-02-08T20:07:24.695Z,64.32
2019-02-08T20:09:55.104Z,64.50
2019-02-08T20:12:25.508Z,64.42
2019-02-08T20:14:55.894Z,64.21
2019-02-08T20:17:26.290Z,64.13
2019-02-08T20:19:56.698Z,64.29
2019-02-08T20:22:27.103Z,64.55
2019-02-08T20:24:57.715Z,64.44
2019-02-08T20:27:28.217Z,64.59
